St Lawrence Post Office, Australia
Current Conditions -  °F | °C
As of 4:00 AM on Wednesday 22 Oct 2014 (Local Time) from YBMK Reporting Station
Broken Clouds Broken Clouds  
Wind Chill: 72°   Ceiling: 3100
Heat Index: 72°   Visibility: 6mi
Dew Point: 61°   Wind: 17mph
Humidity: 69%   Direction: 120°ESE
Pressure: 30.12"   Gusts: NA
Location:  22.33°S, 149.53°E
Report Text: YBMK 211800Z AUTO 12015KT 9999 // BKN031 22/16 Q1020
Loading
Personal Weather Stations






























Interactive Weather Map
Tropical Storm Tracking
New forecast layout! Learn more

10-Day Weather Forecast

Advertisements
Track Severe Weather on mobile